Time;durP1;ratioP1;P1;durP2;ratioP2;P2;SDS_P1;SDS_P2;PMS_P1;PMS_P2;Temp;Humidity;BMP_temperature;BMP_pressure;BME280_temperature;BME280_humidity;BME280_pressure;Samples;Min_cycle;Max_cycle;Signal;HPM_P1;HPM_P2
2021/03/28 00:02:11;;;;;;;6.85;3.00;;;5.00;60.90;;;;;;3353184;26;20058;-77
2021/03/28 00:04:58;;;;;;;8.25;2.95;;;4.90;60.90;;;;;;4998287;28;20026;-75
2021/03/28 00:07:35;;;;;;;7.78;2.80;;;4.80;62.00;;;;;;5015724;28;20022;-75
2021/03/28 00:10:01;;;;;;;12.50;3.28;;;4.80;61.40;;;;;;4997752;28;20120;-76
2021/03/28 00:12:35;;;;;;;9.05;2.80;;;4.80;62.00;;;;;;5015553;28;20601;-76
2021/03/28 00:15:33;;;;;;;6.65;2.50;;;4.80;62.00;;;;;;4998017;28;20026;-76
2021/03/28 00:18:22;;;;;;;8.80;3.00;;;4.80;62.00;;;;;;4989313;28;20038;-76
2021/03/28 00:20:49;;;;;;;7.95;2.80;;;4.80;62.20;;;;;;5015555;28;20026;-76
2021/03/28 00:23:34;;;;;;;8.93;3.25;;;4.80;62.20;;;;;;5015486;28;20034;-75
2021/03/28 00:26:48;;;;;;;6.93;2.80;;;4.70;62.40;;;;;;5015350;28;20030;-75
2021/03/28 00:29:27;;;;;;;10.93;2.92;;;4.70;62.40;;;;;;4972217;28;20033;-76
2021/03/28 00:32:08;;;;;;;8.45;2.90;;;4.60;63.50;;;;;;5015185;28;20026;-76
2021/03/28 00:34:39;;;;;;;4.20;2.28;;;4.50;62.90;;;;;;4997551;28;20474;-76
2021/03/28 00:37:27;;;;;;;9.48;3.33;;;4.60;62.80;;;;;;4997435;28;20045;-76
2021/03/28 00:39:59;;;;;;;11.05;2.65;;;4.60;63.60;;;;;;4997497;28;20018;-76
2021/03/28 00:42:44;;;;;;;10.68;3.13;;;4.50;62.70;;;;;;4997307;28;20109;-76
2021/03/28 00:45:33;;;;;;;8.88;3.05;;;4.50;63.00;;;;;;4997273;28;20386;-76
2021/03/28 00:48:16;;;;;;;5.93;2.60;;;4.30;63.20;;;;;;4997373;28;20394;-75
2021/03/28 00:51:06;;;;;;;12.07;2.70;;;4.30;63.50;;;;;;5013694;28;20095;-75
2021/03/28 00:53:42;;;;;;;7.13;2.85;;;4.20;63.60;;;;;;4997204;28;20097;-76
2021/03/28 00:56:17;;;;;;;13.10;3.53;;;4.30;63.80;;;;;;4997026;28;20026;-75
2021/03/28 00:58:51;;;;;;;12.25;3.50;;;4.30;63.90;;;;;;4997106;28;20026;-76
2021/03/28 01:01:35;;;;;;;9.23;3.15;;;4.30;64.10;;;;;;4996872;28;20044;-76
2021/03/28 01:04:38;;;;;;;13.07;3.20;;;4.40;63.90;;;;;;5013422;28;20088;-76
2021/03/28 01:07:15;;;;;;;10.30;2.78;;;4.30;63.80;;;;;;5013397;28;20025;-76
2021/03/28 01:09:50;;;;;;;7.90;3.03;;;4.40;63.70;;;;;;4996943;28;20113;-76
2021/03/28 01:12:48;;;;;;;13.32;3.65;;;4.40;63.60;;;;;;5013316;28;20018;-76
2021/03/28 01:15:32;;;;;;;8.35;2.92;;;4.30;63.80;;;;;;5013251;28;20038;-75
2021/03/28 01:18:25;;;;;;;8.40;2.35;;;4.30;63.70;;;;;;5013112;28;20116;-74
2021/03/28 01:20:51;;;;;;;5.72;2.08;;;4.30;63.50;;;;;;5012286;28;20113;-75
2021/03/28 01:23:41;;;;;;;11.93;3.30;;;4.20;63.60;;;;;;5013096;28;20121;-75
2021/03/28 01:26:33;;;;;;;9.15;2.97;;;4.20;64.70;;;;;;4996619;28;20494;-75
2021/03/28 01:29:28;;;;;;;8.02;2.78;;;4.10;64.20;;;;;;4996544;28;20026;-74
2021/03/28 01:32:00;;;;;;;9.15;2.38;;;4.00;64.40;;;;;;4996470;28;20054;-75
2021/03/28 01:34:32;;;;;;;10.40;2.40;;;4.00;64.60;;;;;;4996524;28;20084;-74
2021/03/28 01:37:12;;;;;;;13.02;2.90;;;3.90;64.90;;;;;;4996089;28;20105;-75
2021/03/28 01:40:16;;;;;;;10.98;2.58;;;3.90;64.90;;;;;;4996523;28;20076;-75
2021/03/28 01:43:10;;;;;;;7.72;2.47;;;3.90;65.10;;;;;;4996266;28;20497;-74
2021/03/28 01:45:57;;;;;;;9.43;2.70;;;3.80;65.50;;;;;;5013964;28;20022;-75
2021/03/28 01:48:39;;;;;;;6.47;2.22;;;3.80;65.50;;;;;;4996137;28;20057;-75
2021/03/28 01:51:26;;;;;;;9.05;2.95;;;3.80;65.50;;;;;;5012673;28;20025;-75
2021/03/28 01:54:01;;;;;;;10.38;2.13;;;3.80;65.40;;;;;;5012842;28;20118;-75
2021/03/28 01:56:30;;;;;;;;;;;3.80;65.50;;;;;;4998868;28;20092;-74
2021/03/28 01:59:34;;;;;;;8.10;1.90;;;3.60;65.70;;;;;;5009666;28;19912;-77
2021/03/28 02:02:22;;;;;;;9.90;2.45;;;3.70;65.90;;;;;;5032993;28;20038;-74
2021/03/28 02:04:57;;;;;;;5.90;1.80;;;3.70;66.00;;;;;;5021119;28;20078;-74
2021/03/28 02:07:31;;;;;;;6.82;2.22;;;3.60;65.80;;;;;;4996429;28;20026;-74
2021/03/28 02:10:14;;;;;;;10.40;2.45;;;3.70;65.90;;;;;;5012354;28;20030;-74
2021/03/28 02:12:44;;;;;;;12.27;2.90;;;3.60;66.10;;;;;;5013520;28;20034;-75
2021/03/28 02:15:42;;;;;;;8.98;2.15;;;3.50;66.50;;;;;;5011914;28;20026;-74
2021/03/28 02:18:44;;;;;;;7.40;2.30;;;3.50;66.70;;;;;;4987656;28;20136;-74
2021/03/28 02:21:21;;;;;;;9.05;2.30;;;3.40;67.20;;;;;;4995932;28;20079;-74
2021/03/28 02:24:17;;;;;;;8.35;2.25;;;3.40;67.30;;;;;;4995507;28;20065;-74
2021/03/28 02:27:03;;;;;;;8.82;2.25;;;3.40;67.40;;;;;;4987526;28;20042;-74
2021/03/28 02:30:07;;;;;;;6.63;2.38;;;3.40;67.40;;;;;;4995534;28;20033;-73
2021/03/28 02:32:53;;;;;;;8.20;2.05;;;3.40;67.40;;;;;;5011598;28;20099;-74
2021/03/28 02:35:57;;;;;;;9.15;2.65;;;3.30;67.50;;;;;;4995490;28;20084;-74
2021/03/28 02:38:58;;;;;;;8.13;2.72;;;3.20;67.70;;;;;;5011638;28;20056;-74
2021/03/28 02:42:01;;;;;;;7.20;2.05;;;3.20;67.90;;;;;;5013077;28;20044;-75
2021/03/28 02:44:53;;;;;;;5.45;2.50;;;3.30;68.00;;;;;;5011618;28;20030;-75
2021/03/28 02:47:56;;;;;;;4.88;2.00;;;3.30;67.70;;;;;;5004646;28;20042;-75
2021/03/28 02:50:30;;;;;;;11.63;2.60;;;3.40;67.60;;;;;;5012942;28;20088;-76
2021/03/28 02:53:17;;;;;;;10.85;2.60;;;3.30;67.60;;;;;;5012928;28;20049;-74
2021/03/28 02:56:00;;;;;;;5.25;2.08;;;3.30;67.70;;;;;;5012871;28;20058;-74
2021/03/28 02:59:07;;;;;;;7.50;2.42;;;3.30;67.80;;;;;;5011473;28;20037;-75
2021/03/28 03:01:55;;;;;;;7.43;1.92;;;3.30;67.90;;;;;;5011497;28;20053;-75
2021/03/28 03:04:44;;;;;;;8.63;1.98;;;3.30;68.00;;;;;;4995138;28;20034;-75
2021/03/28 03:07:33;;;;;;;12.10;2.20;;;3.20;68.00;;;;;;4996409;28;20022;-75
2021/03/28 03:10:46;;;;;;;8.13;1.85;;;3.00;68.30;;;;;;5014384;28;20026;-75
2021/03/28 03:13:47;;;;;;;5.80;1.95;;;3.00;68.70;;;;;;5017134;28;20437;-75
2021/03/28 03:16:32;;;;;;;11.20;2.20;;;2.90;69.10;;;;;;4937287;29;20027;-75
2021/03/28 03:19:43;;;;;;;4.37;1.20;;;2.80;69.30;;;;;;4999979;28;20057;-75
2021/03/28 03:22:08;;;;;;;9.75;2.03;;;2.90;69.50;;;;;;5395566;22;20360;-75
2021/03/28 03:24:37;;;;;;;6.32;2.03;;;2.80;69.70;;;;;;4990109;28;20055;-75
2021/03/28 03:27:27;;;;;;;13.70;2.95;;;2.80;69.90;;;;;;4992841;28;20018;-75
2021/03/28 03:30:25;;;;;;;9.85;2.47;;;2.80;69.90;;;;;;5084763;23;20360;-75
2021/03/28 03:33:13;;;;;;;7.50;2.45;;;2.80;69.90;;;;;;5120340;23;20054;-75
2021/03/28 03:35:44;;;;;;;8.50;2.58;;;2.70;70.10;;;;;;5009507;23;20073;-75
2021/03/28 03:38:35;;;;;;;9.32;2.05;;;2.70;70.20;;;;;;5033352;22;20172;-75
2021/03/28 03:44:09;;;;;;;7.18;2.08;;;2.70;70.20;;;;;;5231189;22;20042;-75
2021/03/28 03:49:24;;;;;;;8.95;3.25;;;2.70;70.30;;;;;;5041399;23;20057;-75
2021/03/28 03:52:27;;;;;;;17.63;7.10;;;2.80;70.30;;;;;;5035914;28;20475;-76
2021/03/28 03:55:13;;;;;;;12.25;5.00;;;2.80;70.10;;;;;;5018087;28;20108;-76
2021/03/28 03:57:53;;;;;;;13.35;5.47;;;2.70;70.10;;;;;;5127006;23;20053;-76
2021/03/28 04:00:21;;;;;;;21.35;5.28;;;2.70;70.20;;;;;;5017999;28;20037;-76
2021/03/28 04:02:47;;;;;;;12.93;4.82;;;2.70;70.30;;;;;;5042820;28;20037;-75
2021/03/28 04:05:48;;;;;;;11.07;3.72;;;2.60;70.30;;;;;;5046116;28;20037;-77
2021/03/28 04:08:26;;;;;;;20.08;9.25;;;2.60;70.40;;;;;;4999678;28;20125;-76
2021/03/28 04:14:56;;;;;;;14.90;3.08;;;2.70;70.50;;;;;;5004792;23;20065;-77
2021/03/28 04:17:48;;;;;;;6.80;2.17;;;2.60;70.30;;;;;;5007742;28;20509;-77
2021/03/28 04:20:30;;;;;;;9.13;2.33;;;2.50;70.80;;;;;;5017422;28;20033;-74
2021/03/28 04:23:17;;;;;;;8.30;2.75;;;2.50;71.00;;;;;;5017662;28;20021;-75
2021/03/28 04:26:09;;;;;;;9.20;2.50;;;2.50;71.00;;;;;;5017694;28;20419;-75
2021/03/28 04:29:19;;;;;;;13.50;3.00;;;2.50;71.20;;;;;;5036195;28;20037;-75
2021/03/28 04:32:06;;;;;;;5.05;1.90;;;2.50;72.10;;;;;;5013515;28;20040;-75
2021/03/28 04:34:46;;;;;;;13.82;3.03;;;2.50;71.40;;;;;;5017274;28;20032;-74
2021/03/28 04:37:23;;;;;;;7.43;2.38;;;2.40;71.30;;;;;;5017130;28;20372;-74
2021/03/28 04:40:33;;;;;;;7.63;2.47;;;2.40;71.40;;;;;;5017304;28;20021;-74
2021/03/28 04:43:40;;;;;;;12.25;3.17;;;2.50;71.40;;;;;;5017123;28;20099;-76
2021/03/28 04:46:09;;;;;;;9.02;2.55;;;2.50;71.30;;;;;;5016680;28;20029;-74
2021/03/28 04:49:00;;;;;;;8.10;2.28;;;2.50;71.10;;;;;;5017086;23;20554;-76
2021/03/28 04:51:52;;;;;;;11.18;2.28;;;2.40;71.40;;;;;;4952306;28;20105;-77
2021/03/28 04:54:51;;;;;;;6.72;2.47;;;2.30;71.80;;;;;;4936172;28;20109;-77
2021/03/28 04:57:45;;;;;;;7.13;1.95;;;2.30;71.80;;;;;;4958321;28;20045;-75
2021/03/28 05:00:48;;;;;;;4.97;2.13;;;2.30;72.10;;;;;;4958379;28;20074;-75
2021/03/28 05:03:29;;;;;;;7.95;1.95;;;2.20;72.40;;;;;;4974258;28;20395;-76
2021/03/28 05:06:14;;;;;;;9.07;2.22;;;2.20;72.70;;;;;;4975628;28;20117;-77
2021/03/28 05:08:57;;;;;;;8.20;1.77;;;2.10;73.10;;;;;;4975519;28;20030;-76
2021/03/28 05:11:57;;;;;;;7.03;2.25;;;2.00;73.20;;;;;;4958161;28;20054;-76
2021/03/28 05:14:48;;;;;;;8.98;1.70;;;2.10;73.20;;;;;;4974060;28;20031;-77
2021/03/28 05:18:10;;;;;;;6.78;2.25;;;2.10;73.20;;;;;;4975256;28;20063;-76
2021/03/28 05:20:41;;;;;;;7.38;2.28;;;2.20;72.90;;;;;;4975312;28;20033;-76
2021/03/28 05:23:42;;;;;;;9.77;2.13;;;2.20;72.60;;;;;;4957714;28;20061;-76
2021/03/28 05:29:22;;;;;;;5.53;2.10;;;2.30;72.30;;;;;;3319526;26;20055;-76
2021/03/28 05:31:59;;;;;;;9.60;2.25;;;2.30;72.10;;;;;;5073700;28;20426;-76
2021/03/28 05:34:44;;;;;;;8.88;2.03;;;2.30;72.00;;;;;;5055725;28;20570;-75
2021/03/28 05:37:38;;;;;;;10.07;2.20;;;2.30;72.10;;;;;;5055686;28;20040;-75
2021/03/28 05:40:15;;;;;;;6.85;2.42;;;2.20;72.40;;;;;;5055731;28;20025;-76
2021/03/28 05:42:59;;;;;;;5.75;1.90;;;2.20;72.50;;;;;;5055715;28;20028;-76
2021/03/28 05:45:58;;;;;;;10.00;2.80;;;2.30;72.70;;;;;;5055553;28;20031;-74
2021/03/28 05:49:05;;;;;;;10.60;3.13;;;2.40;72.50;;;;;;5055540;28;20020;-74
2021/03/28 05:51:33;;;;;;;;;;;2.50;72.10;;;;;;5055916;28;20020;-74
2021/03/28 05:54:23;;;;;;;5.80;2.08;;;2.50;71.80;;;;;;5055693;28;19983;-74
2021/03/28 05:57:25;;;;;;;4.75;2.20;;;2.50;71.70;;;;;;5055325;28;20550;-74
2021/03/28 06:00:19;;;;;;;8.23;2.28;;;2.60;71.20;;;;;;5055512;28;20028;-75
2021/03/28 06:03:12;;;;;;;8.98;2.53;;;2.60;71.00;;;;;;5055322;28;20404;-73
2021/03/28 06:06:07;;;;;;;7.40;2.22;;;2.60;70.80;;;;;;5055356;28;20032;-74
2021/03/28 06:08:59;;;;;;;7.55;1.88;;;2.60;70.90;;;;;;5055213;28;20108;-75
2021/03/28 06:12:07;;;;;;;12.27;2.70;;;2.70;71.10;;;;;;5055000;28;20036;-74
2021/03/28 06:14:36;;;;;;;8.93;2.63;;;2.60;71.00;;;;;;5055213;28;20457;-73
2021/03/28 06:17:43;;;;;;;8.65;2.25;;;2.70;71.00;;;;;;5055026;28;20058;-74
2021/03/28 06:20:36;;;;;;;11.98;2.20;;;2.80;70.80;;;;;;5046777;28;20488;-75
2021/03/28 06:23:14;;;;;;;12.93;2.40;;;2.80;70.70;;;;;;5055118;28;20028;-75
2021/03/28 06:25:45;;;;;;;11.52;2.63;;;2.80;70.70;;;;;;5054864;28;20028;-75
2021/03/28 06:28:44;;;;;;;11.07;3.30;;;2.90;70.60;;;;;;5054748;28;20093;-75
2021/03/28 06:31:25;;;;;;;6.78;2.22;;;3.00;70.40;;;;;;5054835;28;20055;-75
2021/03/28 06:34:22;;;;;;;14.45;2.80;;;3.10;70.20;;;;;;5055027;28;20546;-76
2021/03/28 06:37:20;;;;;;;10.85;2.90;;;3.20;69.70;;;;;;5054933;28;20058;-76
2021/03/28 06:40:09;;;;;;;19.33;4.13;;;3.30;69.10;;;;;;5054748;28;20016;-74
2021/03/28 06:42:40;;;;;;;11.68;2.55;;;3.30;70.00;;;;;;5026843;28;20090;-74
2021/03/28 06:45:36;;;;;;;8.43;2.50;;;3.40;69.80;;;;;;5054608;28;20418;-75
2021/03/28 06:48:39;;;;;;;5.70;1.90;;;3.60;68.70;;;;;;5054664;28;20025;-75
2021/03/28 06:51:43;;;;;;;7.53;2.00;;;3.70;68.10;;;;;;5054684;28;20036;-75
2021/03/28 06:54:46;;;;;;;6.60;1.60;;;3.90;67.60;;;;;;5072668;28;20024;-77
2021/03/28 06:57:33;;;;;;;10.57;1.92;;;4.10;67.00;;;;;;5072784;28;20115;-76
2021/03/28 07:00:26;;;;;;;8.10;2.53;;;4.20;66.40;;;;;;5054418;28;20074;-77
2021/03/28 07:02:54;;;;;;;16.10;3.63;;;4.40;66.20;;;;;;5054762;28;20025;-76
2021/03/28 07:05:35;;;;;;;8.77;2.65;;;4.60;65.90;;;;;;5053913;28;20032;-76
2021/03/28 07:08:11;;;;;;;10.20;2.50;;;4.80;65.70;;;;;;5054781;28;20044;-76
2021/03/28 07:10:40;;;;;;;9.40;2.22;;;4.90;64.70;;;;;;5054787;28;20020;-76
2021/03/28 07:13:34;;;;;;;13.32;2.65;;;5.00;63.20;;;;;;5054379;28;20020;-76
2021/03/28 07:16:27;;;;;;;8.02;2.33;;;5.10;62.60;;;;;;5054555;28;20588;-76
2021/03/28 07:19:25;;;;;;;11.95;2.15;;;5.20;62.10;;;;;;5073573;28;20052;-76
2021/03/28 07:21:53;;;;;;;8.02;2.45;;;5.40;61.70;;;;;;5053114;28;20108;-77
2021/03/28 07:24:51;;;;;;;8.73;2.85;;;5.50;62.40;;;;;;5057769;28;20473;-76
2021/03/28 07:27:53;;;;;;;9.50;2.60;;;5.70;61.20;;;;;;5057808;28;20025;-76
2021/03/28 07:30:56;;;;;;;10.10;2.63;;;5.90;60.40;;;;;;5057398;28;20038;-75
2021/03/28 07:34:10;;;;;;;8.80;2.92;;;6.00;59.80;;;;;;5057693;28;20020;-76
2021/03/28 07:36:43;;;;;;;8.63;2.17;;;6.30;59.90;;;;;;5057065;28;20040;-76
2021/03/28 07:39:24;;;;;;;7.78;2.60;;;6.50;58.60;;;;;;5057670;28;20175;-76
2021/03/28 07:42:11;;;;;;;8.77;2.03;;;6.70;58.20;;;;;;5058042;28;20033;-76
2021/03/28 07:45:00;;;;;;;10.85;2.47;;;6.80;57.60;;;;;;5057864;28;20051;-76
2021/03/28 07:47:50;;;;;;;7.70;1.92;;;6.90;57.30;;;;;;5057859;28;20123;-75
2021/03/28 07:50:40;;;;;;;5.63;1.73;;;7.00;57.10;;;;;;5057859;28;20016;-74
2021/03/28 07:53:12;;;;;;;10.32;2.08;;;7.10;56.40;;;;;;5057656;28;20028;-74
2021/03/28 07:56:05;;;;;;;6.05;2.25;;;7.20;55.90;;;;;;5057910;28;20020;-75
2021/03/28 07:58:50;;;;;;;6.70;1.90;;;7.30;55.60;;;;;;5057596;28;20029;-75
2021/03/28 08:01:43;;;;;;;10.50;2.00;;;7.60;54.90;;;;;;5057534;28;20106;-74
2021/03/28 08:04:46;;;;;;;4.72;1.80;;;7.80;54.00;;;;;;5057477;28;20129;-75
2021/03/28 08:07:31;;;;;;;5.55;1.80;;;8.00;52.90;;;;;;5057476;28;20036;-75
2021/03/28 08:10:14;;;;;;;18.70;2.47;;;8.20;52.20;;;;;;5057538;28;20484;-76
2021/03/28 08:12:55;;;;;;;9.60;1.90;;;8.40;50.30;;;;;;5057596;28;20074;-75
2021/03/28 08:15:39;;;;;;;11.63;1.88;;;8.60;49.40;;;;;;5057316;28;20515;-76
2021/03/28 08:18:20;;;;;;;6.68;1.88;;;8.70;48.40;;;;;;5057311;28;20029;-74
2021/03/28 08:21:23;;;;;;;4.35;1.30;;;8.90;47.20;;;;;;5057526;28;20500;-75
2021/03/28 08:24:19;;;;;;;4.90;1.42;;;9.10;46.60;;;;;;5057387;28;20029;-76
2021/03/28 08:27:15;;;;;;;10.10;1.60;;;9.30;46.30;;;;;;5057341;28;20073;-75
2021/03/28 08:29:58;;;;;;;9.57;1.27;;;9.50;44.70;;;;;;5056880;28;20114;-75
2021/03/28 08:32:50;;;;;;;8.05;1.80;;;9.50;43.70;;;;;;5074965;28;20039;-75
2021/03/28 08:35:40;;;;;;;8.23;1.92;;;9.60;42.80;;;;;;5056767;28;20031;-74
2021/03/28 08:38:29;;;;;;;8.80;1.52;;;9.70;42.30;;;;;;5056869;28;20036;-74
2021/03/28 08:41:22;;;;;;;6.45;1.45;;;9.90;42.00;;;;;;5055872;28;20032;-74
2021/03/28 08:44:04;;;;;;;5.78;1.13;;;10.10;41.30;;;;;;5056843;28;20024;-74
2021/03/28 08:46:38;;;;;;;6.00;1.50;;;10.30;42.30;;;;;;5056656;28;20024;-74
2021/03/28 08:49:23;;;;;;;8.15;2.05;;;10.30;41.50;;;;;;5056869;28;20075;-74
2021/03/28 08:52:22;;;;;;;13.73;2.50;;;10.30;42.90;;;;;;5056721;28;20120;-77
2021/03/28 08:55:19;;;;;;;6.85;2.30;;;10.70;55.20;;;;;;5049722;28;20032;-76
2021/03/28 08:58:05;;;;;;;11.40;1.80;;;11.30;57.30;;;;;;5056746;28;20150;-75
2021/03/28 09:00:50;;;;;;;7.53;1.83;;;11.80;53.10;;;;;;5056612;28;20020;-78
2021/03/28 09:03:46;;;;;;;6.13;2.45;;;12.30;47.70;;;;;;5056532;28;20491;-78
2021/03/28 09:06:20;;;;;;;9.63;2.83;;;12.60;44.90;;;;;;5056374;28;20017;-77
2021/03/28 09:08:48;;;;;;;9.68;2.85;;;12.80;41.40;;;;;;5056395;28;20029;-77
2021/03/28 09:11:45;;;;;;;10.15;2.65;;;13.00;41.10;;;;;;5056316;28;20552;-77
2021/03/28 09:14:38;;;;;;;5.55;2.05;;;13.20;40.80;;;;;;5552300;23;20062;-76
2021/03/28 09:17:17;;;;;;;8.02;1.85;;;13.60;40.80;;;;;;5056265;28;20032;-77
2021/03/28 09:22:38;;;;;;;5.65;1.80;;;13.90;38.70;;;;;;5658260;23;20050;-76
2021/03/28 09:25:28;;;;;;;6.60;1.90;;;13.90;37.00;;;;;;4993544;28;20166;-76
2021/03/28 09:28:27;;;;;;;6.47;1.60;;;13.90;37.10;;;;;;4994693;28;20022;-78
2021/03/28 09:31:06;;;;;;;5.75;1.52;;;14.00;36.90;;;;;;4977168;28;20527;-77
2021/03/28 09:34:12;;;;;;;4.82;1.60;;;14.30;37.70;;;;;;4994491;28;20479;-77
2021/03/28 09:37:03;;;;;;;4.70;1.95;;;14.50;37.10;;;;;;4976939;28;20121;-76
2021/03/28 09:40:04;;;;;;;5.80;1.80;;;14.90;36.60;;;;;;4976843;28;20034;-76
2021/03/28 09:42:35;;;;;;;5.43;1.80;;;14.90;34.80;;;;;;4976210;28;20062;-77
2021/03/28 09:45:38;;;;;;;4.72;1.40;;;14.40;33.80;;;;;;4976933;28;20085;-76
2021/03/28 09:48:19;;;;;;;7.47;1.55;;;14.60;34.80;;;;;;4983112;28;20030;-76
2021/03/28 09:50:55;;;;;;;10.15;2.00;;;15.00;34.80;;;;;;4999952;28;20029;-75
2021/03/28 09:54:05;;;;;;;6.32;1.88;;;15.00;33.80;;;;;;5013788;28;20022;-76
2021/03/28 09:57:04;;;;;;;5.82;1.90;;;14.70;33.30;;;;;;4996093;28;20036;-78
2021/03/28 10:03:02;;;;;;;7.68;1.50;;;14.70;33.00;;;;;;5116080;23;20121;-76
2021/03/28 10:05:31;;;;;;;6.63;1.70;;;14.60;32.80;;;;;;4976413;28;20026;-74
2021/03/28 10:08:08;;;;;;;7.15;2.03;;;14.30;32.20;;;;;;4993987;28;20026;-75
2021/03/28 10:10:52;;;;;;;6.90;1.70;;;14.20;32.10;;;;;;4976386;28;20544;-73
2021/03/28 10:13:39;;;;;;;9.32;1.95;;;14.00;32.10;;;;;;4993808;28;20478;-73
2021/03/28 10:16:17;;;;;;;5.65;1.42;;;14.00;32.10;;;;;;4976097;28;20026;-73
2021/03/28 10:18:42;;;;;;;5.00;1.70;;;14.30;32.60;;;;;;4993819;28;20471;-73
2021/03/28 10:21:29;;;;;;;5.80;1.50;;;14.40;32.50;;;;;;4976450;28;20018;-74
2021/03/28 10:24:17;;;;;;;7.45;1.63;;;14.30;32.50;;;;;;4993802;28;20030;-74
2021/03/28 10:27:19;;;;;;;7.55;1.48;;;14.50;32.60;;;;;;4993858;28;20468;-74
2021/03/28 10:30:03;;;;;;;5.95;1.55;;;14.90;32.70;;;;;;4976382;28;20038;-73
2021/03/28 10:33:03;;;;;;;7.35;1.90;;;14.90;32.60;;;;;;4993646;28;20467;-76
2021/03/28 10:35:54;;;;;;;6.18;1.92;;;15.00;31.80;;;;;;4981579;28;20537;-74
2021/03/28 10:38:46;;;;;;;3.65;1.50;;;14.90;31.30;;;;;;5000811;28;20030;-73
2021/03/28 10:41:25;;;;;;;3.85;1.13;;;14.80;31.00;;;;;;5001903;28;20382;-75
2021/03/28 10:44:14;;;;;;;7.57;1.98;;;14.90;30.70;;;;;;4984534;28;20399;-74
2021/03/28 10:47:00;;;;;;;3.78;1.30;;;14.80;30.30;;;;;;4956899;28;20023;-74
2021/03/28 10:49:59;;;;;;;4.25;1.65;;;15.20;30.40;;;;;;4974115;28;20030;-74
2021/03/28 10:52:49;;;;;;;4.68;1.40;;;15.60;30.60;;;;;;4973139;28;20073;-77
2021/03/28 10:55:56;;;;;;;4.45;1.33;;;16.10;30.40;;;;;;4960790;28;20027;-74
2021/03/28 10:58:55;;;;;;;6.28;1.65;;;16.40;29.70;;;;;;4908521;28;20375;-75
2021/03/28 11:01:56;;;;;;;6.50;1.92;;;16.30;29.60;;;;;;4977840;28;20047;-75
2021/03/28 11:04:41;;;;;;;7.10;1.40;;;16.00;28.90;;;;;;4977752;28;20031;-74
2021/03/28 11:07:28;;;;;;;6.75;1.75;;;16.00;28.60;;;;;;4960508;28;20019;-74
2021/03/28 11:10:48;;;;;;;5.75;1.38;;;16.10;28.40;;;;;;4977795;28;20492;-75
2021/03/28 11:13:35;;;;;;;3.50;1.27;;;16.00;28.10;;;;;;4935697;28;20380;-74
2021/03/28 11:16:24;;;;;;;5.72;1.25;;;16.00;27.90;;;;;;4960467;28;20031;-74
2021/03/28 11:18:53;;;;;;;4.57;1.77;;;16.30;28.00;;;;;;4977661;28;20454;-74
2021/03/28 11:21:33;;;;;;;9.23;1.92;;;16.00;27.80;;;;;;4977556;28;20078;-74
2021/03/28 11:24:16;;;;;;;5.80;2.35;;;16.00;28.00;;;;;;4960241;28;20488;-72
2021/03/28 11:27:17;;;;;;;4.22;1.25;;;16.20;28.00;;;;;;4960372;28;20114;-72
2021/03/28 11:30:33;;;;;;;3.95;1.48;;;16.30;27.70;;;;;;4977537;28;20082;-73
2021/03/28 11:33:05;;;;;;;6.43;1.48;;;16.60;27.70;;;;;;4977414;28;20031;-73
2021/03/28 11:35:35;;;;;;;5.82;1.58;;;17.00;27.30;;;;;;4960149;28;20031;-74
2021/03/28 11:38:16;;;;;;;5.90;1.73;;;17.30;27.00;;;;;;4959718;28;20038;-73
2021/03/28 11:40:47;;;;;;;3.80;1.45;;;17.30;26.40;;;;;;4977168;28;20093;-73
2021/03/28 11:43:22;;;;;;;7.43;1.70;;;17.30;25.90;;;;;;4975943;28;20031;-76
2021/03/28 11:46:09;;;;;;;4.07;1.50;;;17.20;25.60;;;;;;4959907;28;20023;-73
2021/03/28 11:48:43;;;;;;;4.90;1.75;;;17.00;25.40;;;;;;4959856;28;20029;-73
2021/03/28 11:51:29;;;;;;;5.70;1.45;;;16.30;25.40;;;;;;4959625;28;20029;-73
2021/03/28 11:54:21;;;;;;;3.58;1.73;;;16.10;25.40;;;;;;4977907;28;20058;-73
2021/03/28 11:57:05;;;;;;;3.58;1.30;;;16.10;25.20;;;;;;4994281;28;20499;-73
2021/03/28 11:59:36;;;;;;;4.75;1.60;;;16.40;25.00;;;;;;4978727;28;20093;-74
2021/03/28 12:02:04;;;;;;;5.70;1.50;;;15.90;26.00;;;;;;4978855;28;20046;-74
2021/03/28 12:04:42;;;;;;;5.93;1.50;;;15.70;25.20;;;;;;4978152;28;20022;-74
2021/03/28 12:07:19;;;;;;;3.85;1.30;;;15.70;25.20;;;;;;4978850;28;20030;-76
2021/03/28 12:09:56;;;;;;;3.85;1.55;;;16.10;25.20;;;;;;4996182;28;20033;-74
2021/03/28 12:12:40;;;;;;;4.45;1.65;;;16.50;25.40;;;;;;4996119;28;20026;-76
2021/03/28 12:15:43;;;;;;;4.32;1.58;;;17.00;25.20;;;;;;4978858;28;20465;-75
2021/03/28 12:21:03;;;;;;;8.05;1.65;;;16.90;24.70;;;;;;5000814;28;20041;-76
2021/03/28 12:23:56;;;;;;;5.78;1.80;;;16.90;24.00;;;;;;5008196;28;20022;-77
2021/03/28 12:26:25;;;;;;;5.88;1.55;;;16.90;23.70;;;;;;4997857;28;20060;-76
2021/03/28 12:28:56;;;;;;;5.13;1.42;;;17.10;23.80;;;;;;5015529;28;20026;-75
2021/03/28 12:31:33;;;;;;;6.38;1.45;;;17.00;23.10;;;;;;5015440;28;20018;-75
2021/03/28 12:34:08;;;;;;;3.78;1.35;;;17.00;22.80;;;;;;5015420;28;20052;-76
2021/03/28 12:36:57;;;;;;;6.13;1.60;;;17.20;22.60;;;;;;4997695;28;20433;-75
2021/03/28 12:39:36;;;;;;;7.32;1.90;;;17.60;23.20;;;;;;4997623;28;20033;-74
2021/03/28 12:42:02;;;;;;;3.25;1.50;;;17.70;22.90;;;;;;5015213;28;20026;-77
2021/03/28 12:44:32;;;;;;;5.32;1.73;;;17.90;22.20;;;;;;5014877;28;20026;-75
2021/03/28 12:47:21;;;;;;;4.93;2.10;;;17.70;22.10;;;;;;4997426;28;20133;-74
2021/03/28 12:49:57;;;;;;;2.95;1.38;;;18.00;21.80;;;;;;5014983;28;20065;-75
2021/03/28 12:52:33;;;;;;;4.45;1.25;;;18.10;22.10;;;;;;5014782;28;20018;-74
2021/03/28 12:55:16;;;;;;;7.00;1.75;;;18.20;21.70;;;;;;5014958;28;20026;-73
2021/03/28 12:57:49;;;;;;;4.82;1.58;;;17.90;21.40;;;;;;5002512;28;20030;-73
2021/03/28 13:00:36;;;;;;;3.95;1.58;;;17.90;21.40;;;;;;4986809;28;20026;-74
2021/03/28 13:03:34;;;;;;;4.68;1.70;;;18.00;21.50;;;;;;4996089;28;20046;-74
2021/03/28 13:06:02;;;;;;;4.43;1.58;;;18.10;21.40;;;;;;4986907;28;20439;-73
2021/03/28 13:08:39;;;;;;;4.50;1.42;;;17.60;21.10;;;;;;4995030;28;20033;-72
2021/03/28 13:11:05;;;;;;;8.50;1.50;;;17.70;21.50;;;;;;4994966;28;20022;-72
2021/03/28 13:13:40;;;;;;;6.22;1.92;;;18.10;21.40;;;;;;4994924;28;20166;-74
2021/03/28 13:16:19;;;;;;;5.45;1.40;;;18.50;21.30;;;;;;4994114;28;20019;-73
2021/03/28 13:18:47;;;;;;;4.10;1.30;;;18.90;21.00;;;;;;4994987;28;20054;-72
2021/03/28 13:21:33;;;;;;;4.25;1.77;;;18.50;21.30;;;;;;4977552;28;20034;-74
2021/03/28 13:24:16;;;;;;;;;;;18.60;20.40;;;;;;4995245;28;20085;-72
2021/03/28 13:27:09;;;;;;;3.90;1.25;;;18.20;20.40;;;;;;4977446;28;19929;-74
2021/03/28 13:29:40;;;;;;;4.78;1.33;;;18.40;20.20;;;;;;4977212;28;20502;-75
2021/03/28 13:32:24;;;;;;;3.25;1.10;;;18.30;20.00;;;;;;4994623;28;20023;-73
2021/03/28 13:34:59;;;;;;;5.97;1.50;;;17.80;19.60;;;;;;4977323;28;20042;-76
2021/03/28 13:37:29;;;;;;;3.43;1.37;;;18.00;19.90;;;;;;4994656;28;20041;-75
2021/03/28 13:40:11;;;;;;;2.38;1.05;;;18.00;20.00;;;;;;4994472;28;20262;-74
2021/03/28 13:42:46;;;;;;;3.70;1.45;;;18.40;19.90;;;;;;4994488;28;20076;-75
2021/03/28 13:45:17;;;;;;;4.13;1.48;;;18.50;19.90;;;;;;4994533;28;20030;-74
2021/03/28 13:47:45;;;;;;;4.60;1.33;;;18.80;19.70;;;;;;4995038;28;20109;-74
2021/03/28 13:50:33;;;;;;;4.68;1.42;;;19.20;19.40;;;;;;4994387;28;20026;-73
2021/03/28 13:53:01;;;;;;;5.35;1.38;;;18.60;19.20;;;;;;4976827;28;20030;-73
2021/03/28 13:55:32;;;;;;;4.30;1.23;;;18.00;19.30;;;;;;4994254;28;20031;-73
2021/03/28 13:58:17;;;;;;;4.68;1.40;;;17.70;19.70;;;;;;4976670;28;20494;-74
2021/03/28 14:00:44;;;;;;;5.45;1.77;;;17.80;19.90;;;;;;4994176;28;20446;-74
2021/03/28 14:03:17;;;;;;;6.50;1.50;;;18.10;20.10;;;;;;4994189;28;20034;-73
2021/03/28 14:05:46;;;;;;;3.95;1.30;;;18.50;20.30;;;;;;4976747;28;20172;-73
2021/03/28 14:08:16;;;;;;;5.47;1.40;;;18.80;20.40;;;;;;4994014;28;20023;-75
2021/03/28 14:10:41;;;;;;;3.97;1.60;;;18.60;20.30;;;;;;4994069;28;20121;-73
2021/03/28 14:13:30;;;;;;;5.35;1.50;;;18.80;20.00;;;;;;4976735;28;20104;-74
2021/03/28 14:16:02;;;;;;;4.13;1.60;;;18.90;20.00;;;;;;4976664;28;20438;-73
2021/03/28 14:18:31;;;;;;;5.90;1.50;;;18.30;19.80;;;;;;4976506;28;20046;-73
2021/03/28 14:21:09;;;;;;;6.28;1.38;;;17.90;19.80;;;;;;4976651;28;20050;-73
2021/03/28 14:23:44;;;;;;;5.32;1.60;;;17.90;19.90;;;;;;4993902;28;20037;-73
2021/03/28 14:26:10;;;;;;;5.90;1.55;;;18.40;19.80;;;;;;4976319;28;20026;-74
2021/03/28 14:28:45;;;;;;;4.22;1.55;;;18.90;19.90;;;;;;4993498;28;20029;-73
2021/03/28 14:31:11;;;;;;;3.95;1.30;;;19.00;19.50;;;;;;4976536;28;20062;-73
2021/03/28 14:34:06;;;;;;;4.20;1.48;;;19.40;19.30;;;;;;4993695;28;20046;-75
2021/03/28 14:36:47;;;;;;;5.72;1.35;;;19.60;19.30;;;;;;4976075;28;20040;-73
2021/03/28 14:39:47;;;;;;;2.85;1.08;;;18.80;19.00;;;;;;4976292;28;20133;-74
2021/03/28 14:42:16;;;;;;;6.28;1.40;;;18.60;19.10;;;;;;4976276;28;20061;-73
2021/03/28 14:45:03;;;;;;;7.93;1.90;;;18.80;19.00;;;;;;4976001;28;20026;-73
2021/03/28 14:47:44;;;;;;;4.40;1.10;;;19.00;19.10;;;;;;4993587;28;20057;-75